createdAt,value
2019-03-06T00:01:55.265Z,97930.97
2019-03-06T00:04:24.511Z,97929.98
2019-03-06T00:06:53.930Z,97927.47
2019-03-06T00:09:23.218Z,97940.17
2019-03-06T00:11:52.486Z,97939.30
2019-03-06T00:14:21.760Z,97943.84
2019-03-06T00:16:51.062Z,97951.50
2019-03-06T00:19:20.328Z,97951.20
2019-03-06T00:21:49.567Z,97942.11
2019-03-06T00:24:18.876Z,97936.59
2019-03-06T00:26:48.230Z,97930.83
2019-03-06T00:29:17.474Z,97938.91
2019-03-06T00:31:46.731Z,97941.52
2019-03-06T00:34:15.975Z,97934.61
2019-03-06T00:36:45.243Z,97929.59
2019-03-06T00:39:14.591Z,97927.73
2019-03-06T00:41:46.382Z,97933.59
2019-03-06T00:44:15.632Z,97926.31
2019-03-06T00:46:44.910Z,97928.00
2019-03-06T00:49:14.146Z,97927.23
2019-03-06T00:51:43.391Z,97922.94
2019-03-06T00:54:12.665Z,97923.40
2019-03-06T00:56:41.914Z,97915.55
2019-03-06T00:59:11.183Z,97921.25
2019-03-06T01:01:40.417Z,97912.78
2019-03-06T01:04:09.655Z,97911.81
2019-03-06T01:06:38.918Z,97913.23
2019-03-06T01:09:08.895Z,97916.70
2019-03-06T01:11:38.159Z,97904.83
2019-03-06T01:14:07.417Z,97912.80
2019-03-06T01:16:36.678Z,97912.18
2019-03-06T01:19:08.383Z,97905.19
2019-03-06T01:21:37.694Z,97906.05
2019-03-06T01:24:06.966Z,97899.30
2019-03-06T01:26:36.205Z,97895.63
2019-03-06T01:29:05.764Z,97899.52
2019-03-06T01:31:35.027Z,97889.05
2019-03-06T01:34:13.001Z,97891.45
2019-03-06T01:37:00.334Z,97889.17
2019-03-06T01:39:48.297Z,97887.13
2019-03-06T01:42:39.313Z,97881.17
2019-03-06T01:45:10.666Z,97883.69
2019-03-06T01:47:39.940Z,97884.30
2019-03-06T01:50:12.430Z,97887.49
2019-03-06T01:52:41.718Z,97879.33
2019-03-06T01:55:12.751Z,97880.25
2019-03-06T01:57:42.001Z,97866.77
2019-03-06T02:00:23.690Z,97867.15
2019-03-06T02:02:53.211Z,97866.13
2019-03-06T02:05:22.482Z,97869.23
2019-03-06T02:07:51.723Z,97853.20
2019-03-06T02:10:21.086Z,97854.91
2019-03-06T02:12:50.426Z,97851.36
2019-03-06T02:15:19.866Z,97852.39
2019-03-06T02:17:49.154Z,97857.55
2019-03-06T02:20:18.643Z,97851.07
2019-03-06T02:22:48.001Z,97836.24
2019-03-06T02:25:17.234Z,97834.63
2019-03-06T02:27:46.670Z,97827.42
2019-03-06T02:30:18.054Z,97826.31
2019-03-06T02:32:47.313Z,97819.70
2019-03-06T02:35:16.585Z,97818.56
2019-03-06T02:37:45.833Z,97815.30
2019-03-06T02:40:15.194Z,97809.74
2019-03-06T02:42:44.456Z,97813.84
2019-03-06T02:45:14.934Z,97805.61
2019-03-06T02:47:45.134Z,97817.75
2019-03-06T02:50:15.034Z,97824.00
2019-03-06T02:52:44.446Z,97825.97
2019-03-06T02:55:14.214Z,97823.88
2019-03-06T02:57:49.471Z,97830.69
2019-03-06T03:00:37.564Z,97825.11
2019-03-06T03:03:12.828Z,97819.84
2019-03-06T03:05:47.627Z,97817.99
2019-03-06T03:08:16.914Z,97810.33
2019-03-06T03:10:46.383Z,97811.73
2019-03-06T03:13:15.673Z,97803.38
2019-03-06T03:15:44.947Z,97801.07
2019-03-06T03:18:14.197Z,97802.33
2019-03-06T03:20:43.563Z,97814.08
2019-03-06T03:23:13.098Z,97821.43
2019-03-06T03:25:42.707Z,97817.99
2019-03-06T03:28:11.947Z,97814.19
2019-03-06T03:30:41.201Z,97821.42
2019-03-06T03:33:10.478Z,97816.39
2019-03-06T03:35:40.018Z,97804.94
2019-03-06T03:38:09.293Z,97800.92
2019-03-06T03:40:38.544Z,97799.63
2019-03-06T03:43:07.862Z,97807.08
2019-03-06T03:45:37.093Z,97806.52
2019-03-06T03:48:06.972Z,97806.13
2019-03-06T03:50:36.241Z,97802.17
2019-03-06T03:53:05.496Z,97798.92
2019-03-06T03:55:34.805Z,97807.20
2019-03-06T03:58:04.067Z,97804.38
2019-03-06T04:00:33.426Z,97813.20
2019-03-06T04:03:10.519Z,97813.11
2019-03-06T04:05:39.800Z,97810.47
2019-03-06T04:08:09.050Z,97802.30
2019-03-06T04:10:38.352Z,97814.80
2019-03-06T04:13:07.829Z,97810.51
2019-03-06T04:15:37.102Z,97808.57
2019-03-06T04:18:06.363Z,97810.88
2019-03-06T04:20:35.617Z,97807.81
2019-03-06T04:23:04.880Z,97807.93
2019-03-06T04:25:34.301Z,97808.06
2019-03-06T04:28:03.582Z,97805.60
2019-03-06T04:30:32.844Z,97810.39
2019-03-06T04:33:02.127Z,97798.88
2019-03-06T04:35:31.405Z,97793.98
2019-03-06T04:38:00.723Z,97795.94
2019-03-06T04:40:30.024Z,97794.32
2019-03-06T04:42:59.270Z,97780.77
2019-03-06T04:45:28.531Z,97791.01
2019-03-06T04:47:57.810Z,97798.37
2019-03-06T04:50:27.380Z,97798.13
2019-03-06T04:52:56.656Z,97803.16
2019-03-06T04:55:25.916Z,97796.53
2019-03-06T04:57:55.196Z,97796.03
2019-03-06T05:00:24.518Z,97791.52
2019-03-06T05:02:53.957Z,97805.45
2019-03-06T05:05:23.232Z,97808.67
2019-03-06T05:07:52.490Z,97808.92
2019-03-06T05:10:21.953Z,97808.19
2019-03-06T05:12:51.224Z,97791.28
2019-03-06T05:15:20.672Z,97784.63
2019-03-06T05:17:57.956Z,97784.39
2019-03-06T05:20:27.199Z,97786.59
2019-03-06T05:22:56.495Z,97786.35
2019-03-06T05:25:25.783Z,97781.56
2019-03-06T05:27:55.064Z,97779.39
2019-03-06T05:30:25.552Z,97774.60
2019-03-06T05:32:55.257Z,97766.02
2019-03-06T05:35:55.610Z,97762.83
2019-03-06T05:38:35.523Z,97764.42
2019-03-06T05:41:04.782Z,97756.52
2019-03-06T05:43:34.245Z,97755.11
2019-03-06T05:46:03.537Z,97758.36
2019-03-06T05:48:32.784Z,97759.95
2019-03-06T05:51:02.574Z,97748.73
2019-03-06T05:53:31.892Z,97759.45
2019-03-06T05:56:01.502Z,97758.76
2019-03-06T05:58:31.258Z,97758.23
2019-03-06T06:01:01.478Z,97764.64
2019-03-06T06:03:34.424Z,97759.20
2019-03-06T06:06:15.432Z,97765.95
2019-03-06T06:08:45.140Z,97762.28
2019-03-06T06:11:14.793Z,97761.42
2019-03-06T06:13:44.467Z,97764.36
2019-03-06T06:16:14.236Z,97761.55
2019-03-06T06:18:43.534Z,97754.37
2019-03-06T06:21:26.178Z,97767.70
2019-03-06T06:23:59.237Z,97760.39
2019-03-06T06:26:28.855Z,97754.86
2019-03-06T06:28:58.148Z,97750.00
2019-03-06T06:31:27.720Z,97756.06
2019-03-06T06:33:57.049Z,97754.27
2019-03-06T06:36:26.394Z,97743.08
2019-03-06T06:38:55.646Z,97733.00
2019-03-06T06:41:24.921Z,97727.59
2019-03-06T06:43:54.194Z,97725.07
2019-03-06T06:46:23.464Z,97734.55
2019-03-06T06:48:52.876Z,97745.75
2019-03-06T06:51:55.821Z,97763.38
2019-03-06T06:54:45.710Z,97755.20
2019-03-06T06:57:42.588Z,97746.55
2019-03-06T07:00:53.668Z,97720.33
2019-03-06T07:04:04.443Z,97709.27
2019-03-06T07:06:53.800Z,97700.95
2019-03-06T07:09:53.929Z,97709.36
2019-03-06T07:12:35.537Z,97716.68
2019-03-06T07:15:22.818Z,97706.34
2019-03-06T07:18:11.009Z,97701.10
2019-03-06T07:21:14.488Z,97693.31
2019-03-06T07:24:02.689Z,97687.54
2019-03-06T07:26:53.744Z,97672.69
2019-03-06T07:29:42.124Z,97670.52
2019-03-06T07:32:45.525Z,97662.55
2019-03-06T07:36:19.368Z,97661.00
2019-03-06T07:38:56.643Z,97667.56
2019-03-06T07:41:43.629Z,97667.02
2019-03-06T07:44:31.817Z,97672.16
2019-03-06T07:47:18.425Z,97674.73
2019-03-06T07:50:06.288Z,97667.83
2019-03-06T07:52:54.568Z,97659.35
2019-03-06T07:55:51.707Z,97655.27
2019-03-06T07:58:51.311Z,97643.96
2019-03-06T08:01:20.572Z,97635.84
2019-03-06T08:03:57.139Z,97639.61
2019-03-06T08:06:26.729Z,97636.70
2019-03-06T08:08:55.992Z,97630.95
2019-03-06T08:11:36.849Z,97635.03
2019-03-06T08:14:10.908Z,97642.26
2019-03-06T08:16:59.118Z,97647.95
2019-03-06T08:19:46.123Z,97641.97
2019-03-06T08:22:24.781Z,97644.93
2019-03-06T08:25:06.111Z,97637.92
2019-03-06T08:27:35.395Z,97643.65
2019-03-06T08:30:07.698Z,97642.84
2019-03-06T08:32:37.441Z,97631.54
2019-03-06T08:35:08.241Z,97638.37
2019-03-06T08:37:37.515Z,97634.58
2019-03-06T08:40:07.082Z,97627.00
2019-03-06T08:42:36.330Z,97627.28
2019-03-06T08:45:07.323Z,97625.83
2019-03-06T08:47:54.225Z,97631.44
2019-03-06T08:50:43.452Z,97643.78
2019-03-06T08:53:40.571Z,97620.45
2019-03-06T08:56:31.666Z,97614.77
2019-03-06T08:59:18.762Z,97609.32
2019-03-06T09:02:03.215Z,97596.09
2019-03-06T09:04:59.039Z,97591.55
2019-03-06T09:07:53.354Z,97577.96
2019-03-06T09:10:36.012Z,97575.98
2019-03-06T09:13:12.168Z,97575.33
2019-03-06T09:16:01.645Z,97577.39
2019-03-06T09:18:58.954Z,97568.59
2019-03-06T09:21:34.988Z,97578.41
2019-03-06T09:24:23.570Z,97583.19
2019-03-06T09:27:17.987Z,97575.92
2019-03-06T09:30:15.932Z,97581.23
2019-03-06T09:33:08.221Z,97570.50
2019-03-06T09:35:59.259Z,97562.63
2019-03-06T09:38:53.509Z,97565.80
2019-03-06T09:41:41.717Z,97559.17
2019-03-06T09:44:29.899Z,97557.81
2019-03-06T09:47:10.780Z,97557.22
2019-03-06T09:50:01.838Z,97551.72
2019-03-06T09:52:56.138Z,97539.09
2019-03-06T09:55:53.233Z,97531.39
2019-03-06T09:58:44.547Z,97539.97
2019-03-06T10:01:35.903Z,97520.25
2019-03-06T10:04:36.304Z,97543.49
2019-03-06T10:07:12.090Z,97512.36
2019-03-06T10:09:58.859Z,97516.66
2019-03-06T10:12:47.444Z,97525.44
2019-03-06T10:15:36.366Z,97527.98
2019-03-06T10:18:27.734Z,97506.19
2019-03-06T10:20:56.983Z,97509.41
2019-03-06T10:23:26.248Z,97504.91
2019-03-06T10:25:55.519Z,97496.98
2019-03-06T10:28:27.850Z,97483.16
2019-03-06T10:31:02.434Z,97487.64
2019-03-06T10:33:26.748Z,97478.23
2019-03-06T10:35:56.019Z,97482.30
2019-03-06T10:38:25.291Z,97481.03
2019-03-06T10:40:54.534Z,97473.06
2019-03-06T10:43:23.846Z,97468.02
2019-03-06T10:45:53.222Z,97466.23
2019-03-06T10:48:22.549Z,97462.58
2019-03-06T10:50:51.797Z,97462.97
2019-03-06T10:53:25.932Z,97449.28
2019-03-06T10:55:55.474Z,97454.80
2019-03-06T10:58:24.723Z,97459.29
2019-03-06T11:00:54.775Z,97454.75
2019-03-06T11:03:43.863Z,97451.95
2019-03-06T11:06:14.031Z,97453.66
2019-03-06T11:08:43.285Z,97458.16
2019-03-06T11:11:13.152Z,97446.09
2019-03-06T11:13:42.496Z,97441.78
2019-03-06T11:16:12.545Z,97441.89
2019-03-06T11:18:42.311Z,97438.25
2019-03-06T11:21:11.693Z,97440.25
2019-03-06T11:23:40.969Z,97443.24
2019-03-06T11:26:10.556Z,97440.30
2019-03-06T11:28:40.065Z,97436.80
2019-03-06T11:31:09.763Z,97437.60
2019-03-06T11:33:39.349Z,97426.14
2019-03-06T11:36:08.704Z,97424.92
2019-03-06T11:38:38.085Z,97422.74
2019-03-06T11:41:07.641Z,97413.02
2019-03-06T11:43:36.985Z,97402.80
2019-03-06T11:46:07.084Z,97401.84
2019-03-06T11:48:36.425Z,97387.95
2019-03-06T11:51:06.478Z,97388.97
2019-03-06T11:53:35.763Z,97386.30
2019-03-06T11:56:06.411Z,97376.92
2019-03-06T11:58:35.687Z,97365.23
2019-03-06T12:01:09.854Z,97366.90
2019-03-06T12:03:39.136Z,97353.83
2019-03-06T12:06:08.406Z,97345.48
2019-03-06T12:08:45.681Z,97334.11
2019-03-06T12:11:08.868Z,97337.88
2019-03-06T12:13:38.630Z,97339.61
2019-03-06T12:16:07.984Z,97327.02
2019-03-06T12:18:37.237Z,97305.86
2019-03-06T12:21:06.522Z,97311.70
2019-03-06T12:23:35.814Z,97314.88
2019-03-06T12:26:05.309Z,97308.41
2019-03-06T12:28:34.642Z,97299.84
2019-03-06T12:31:05.136Z,97301.80
2019-03-06T12:33:34.518Z,97301.82
2019-03-06T12:36:05.625Z,97294.94
2019-03-06T12:38:35.011Z,97296.50
2019-03-06T12:41:04.663Z,97284.34
2019-03-06T12:43:34.483Z,97285.88
2019-03-06T12:46:29.564Z,97275.88
2019-03-06T12:49:04.312Z,97265.50
2019-03-06T12:51:34.671Z,97252.97
2019-03-06T12:54:03.949Z,97243.95
2019-03-06T12:56:33.212Z,97229.03
2019-03-06T12:59:02.456Z,97237.61
2019-03-06T13:01:32.333Z,97232.73
2019-03-06T13:04:01.747Z,97221.02
2019-03-06T13:06:31.041Z,97213.38
2019-03-06T13:09:01.358Z,97192.21
2019-03-06T13:11:30.726Z,97190.59
2019-03-06T13:14:00.040Z,97185.73
2019-03-06T13:16:29.333Z,97185.94
2019-03-06T13:18:58.767Z,97187.84
2019-03-06T13:21:28.027Z,97179.27
2019-03-06T13:23:57.336Z,97176.53
2019-03-06T13:26:26.593Z,97166.34
2019-03-06T13:28:57.602Z,97173.16
2019-03-06T13:31:26.842Z,97165.53
2019-03-06T13:34:18.048Z,97152.55
2019-03-06T13:36:49.873Z,97152.25
2019-03-06T13:39:19.238Z,97140.50
2019-03-06T13:41:48.527Z,97130.10
2019-03-06T13:44:19.075Z,97126.56
2019-03-06T13:46:48.525Z,97122.84
2019-03-06T13:49:17.771Z,97099.35
2019-03-06T13:51:47.032Z,97116.52
2019-03-06T13:54:16.305Z,97114.22
2019-03-06T13:56:45.547Z,97112.98
2019-03-06T13:59:14.822Z,97111.44
2019-03-06T14:01:44.147Z,97107.47
2019-03-06T14:04:13.386Z,97112.97
2019-03-06T14:06:42.648Z,97091.45
2019-03-06T14:09:11.659Z,97085.95
2019-03-06T14:11:41.155Z,97089.06
2019-03-06T14:14:10.474Z,97080.06
2019-03-06T14:16:39.731Z,97072.82
2019-03-06T14:19:09.007Z,97073.05
2019-03-06T14:21:38.350Z,97081.66
2019-03-06T14:24:07.798Z,97074.22
2019-03-06T14:26:37.397Z,97080.95
2019-03-06T14:29:06.906Z,97062.14
2019-03-06T14:31:36.279Z,97059.75
2019-03-06T14:34:05.631Z,97059.59
2019-03-06T14:36:34.993Z,97062.90
2019-03-06T14:39:14.318Z,97060.36
2019-03-06T14:41:43.609Z,97058.19
2019-03-06T14:44:13.010Z,97067.94
2019-03-06T14:46:42.327Z,97059.42
2019-03-06T14:49:11.706Z,97075.03
2019-03-06T14:51:40.968Z,97069.51
2019-03-06T14:54:10.457Z,97054.46
2019-03-06T14:56:39.722Z,97045.86
2019-03-06T14:59:09.004Z,97035.08
2019-03-06T15:01:38.250Z,97040.58
2019-03-06T15:04:07.601Z,97037.05
2019-03-06T15:06:36.890Z,97033.91
2019-03-06T15:09:19.016Z,97049.20
2019-03-06T15:11:48.387Z,97036.85
2019-03-06T15:14:17.648Z,97034.72
2019-03-06T15:16:46.959Z,97030.40
2019-03-06T15:19:16.215Z,97028.05
2019-03-06T15:21:45.458Z,97018.64
2019-03-06T15:24:14.781Z,97019.81
2019-03-06T15:26:44.117Z,97024.15
2019-03-06T15:29:13.919Z,97039.00
2019-03-06T15:31:43.786Z,97016.67
2019-03-06T15:34:13.403Z,97015.90
2019-03-06T15:36:42.667Z,97009.81
2019-03-06T15:39:42.585Z,97002.59
2019-03-06T15:42:10.160Z,97002.58
2019-03-06T15:44:39.608Z,96991.23
2019-03-06T15:47:09.066Z,96993.77
2019-03-06T15:49:38.478Z,96979.12
2019-03-06T15:52:10.160Z,96972.83
2019-03-06T15:54:39.724Z,96979.11
2019-03-06T15:57:10.123Z,96976.36
2019-03-06T15:59:39.813Z,96966.38
2019-03-06T16:02:09.501Z,96964.81
2019-03-06T16:04:38.839Z,96959.53
2019-03-06T16:07:08.216Z,96949.75
2019-03-06T16:09:37.868Z,96942.86
2019-03-06T16:12:07.987Z,96944.63
2019-03-06T16:14:37.370Z,96946.20
2019-03-06T16:17:06.662Z,96943.86
2019-03-06T16:19:37.798Z,96936.03
2019-03-06T16:22:08.478Z,96935.25
2019-03-06T16:24:37.959Z,96929.78
2019-03-06T16:27:07.510Z,96929.16
2019-03-06T16:29:36.977Z,96926.02
2019-03-06T16:32:06.215Z,96928.16
2019-03-06T16:34:35.468Z,96921.31
2019-03-06T16:37:05.248Z,96930.10
2019-03-06T16:39:34.507Z,96912.50
2019-03-06T16:42:03.823Z,96917.79
2019-03-06T16:44:33.071Z,96918.50
2019-03-06T16:47:06.689Z,96909.34
2019-03-06T16:49:33.329Z,96907.91
2019-03-06T16:52:02.588Z,96911.41
2019-03-06T16:54:31.970Z,96912.78
2019-03-06T16:57:01.258Z,96903.59
2019-03-06T16:59:30.581Z,96911.37
2019-03-06T17:01:59.876Z,96918.95
2019-03-06T17:04:29.522Z,96912.91
2019-03-06T17:06:58.804Z,96904.73
2019-03-06T17:09:28.907Z,96904.47
2019-03-06T17:11:58.290Z,96909.75
2019-03-06T17:14:27.583Z,96903.20
2019-03-06T17:16:56.883Z,96906.34
2019-03-06T17:19:26.311Z,96906.34
2019-03-06T17:21:55.692Z,96902.98
2019-03-06T17:24:25.058Z,96913.09
2019-03-06T17:26:54.343Z,96896.91
2019-03-06T17:29:23.695Z,96909.77
2019-03-06T17:31:54.408Z,96913.08
2019-03-06T17:34:23.975Z,96906.45
2019-03-06T17:36:53.233Z,96907.03
2019-03-06T17:39:22.513Z,96913.83
2019-03-06T17:41:52.071Z,96931.03
2019-03-06T17:44:21.376Z,96920.53
2019-03-06T17:46:50.942Z,96905.81
2019-03-06T17:49:20.291Z,96908.75
2019-03-06T17:51:49.617Z,96910.81
2019-03-06T17:54:18.872Z,96915.48
2019-03-06T17:56:48.220Z,96914.47
2019-03-06T17:59:17.744Z,96905.52
2019-03-06T18:01:47.312Z,96911.02
2019-03-06T18:04:17.691Z,96914.80
2019-03-06T18:06:47.275Z,96911.56
2019-03-06T18:09:16.932Z,96903.28
2019-03-06T18:11:46.283Z,96906.45
2019-03-06T18:14:15.793Z,96899.18
2019-03-06T18:16:45.206Z,96895.18
2019-03-06T18:19:14.856Z,96885.33
2019-03-06T18:21:44.199Z,96879.25
2019-03-06T18:24:13.753Z,96884.85
2019-03-06T18:26:43.117Z,96881.72
2019-03-06T18:29:12.698Z,96883.76
2019-03-06T18:31:42.063Z,96876.29
2019-03-06T18:34:11.370Z,96875.09
2019-03-06T18:36:40.724Z,96872.73
2019-03-06T18:39:20.968Z,96863.42
2019-03-06T18:41:50.289Z,96861.82
2019-03-06T18:44:19.556Z,96860.34
2019-03-06T18:46:48.937Z,96855.95
2019-03-06T18:49:18.296Z,96865.30
2019-03-06T18:51:47.625Z,96850.91
2019-03-06T18:54:17.010Z,96852.45
2019-03-06T18:56:46.390Z,96855.55
2019-03-06T18:59:15.474Z,96853.16
2019-03-06T19:01:45.008Z,96859.23
2019-03-06T19:04:15.003Z,96861.14
2019-03-06T19:06:44.378Z,96861.17
2019-03-06T19:09:16.242Z,96849.30
2019-03-06T19:11:45.667Z,96849.67
2019-03-06T19:14:14.966Z,96858.03
2019-03-06T19:16:44.287Z,96859.64
2019-03-06T19:19:13.714Z,96841.93
2019-03-06T19:21:43.073Z,96845.83
2019-03-06T19:24:12.390Z,96845.85
2019-03-06T19:26:42.703Z,96843.95
2019-03-06T19:29:12.100Z,96830.98
2019-03-06T19:31:41.385Z,96827.63
2019-03-06T19:34:10.682Z,96818.83
2019-03-06T19:36:39.989Z,96834.53
2019-03-06T19:39:09.397Z,96829.45
2019-03-06T19:41:38.884Z,96831.55
2019-03-06T19:44:08.170Z,96826.52
2019-03-06T19:46:37.489Z,96812.30
2019-03-06T19:49:06.957Z,96810.20
2019-03-06T19:51:36.267Z,96812.84
2019-03-06T19:54:05.973Z,96812.23
2019-03-06T19:56:35.418Z,96795.61
2019-03-06T19:59:06.973Z,96799.70
2019-03-06T20:01:36.299Z,96788.03
2019-03-06T20:04:05.906Z,96780.06
2019-03-06T20:06:35.544Z,96784.02
2019-03-06T20:09:21.654Z,96776.25
2019-03-06T20:11:50.953Z,96763.95
2019-03-06T20:14:20.396Z,96752.13
2019-03-06T20:16:49.793Z,96758.66
2019-03-06T20:19:19.073Z,96758.61
2019-03-06T20:21:48.713Z,96749.33
2019-03-06T20:24:17.955Z,96740.90
2019-03-06T20:26:47.309Z,96743.30
2019-03-06T20:29:16.551Z,96739.80
2019-03-06T20:31:45.812Z,96735.17
2019-03-06T20:34:15.134Z,96726.70
2019-03-06T20:36:45.707Z,96733.94
2019-03-06T20:39:15.060Z,96738.60
2019-03-06T20:41:44.321Z,96732.31
2019-03-06T20:44:14.998Z,96732.78
2019-03-06T20:46:44.272Z,96732.52
2019-03-06T20:49:13.588Z,96734.22
2019-03-06T20:51:42.868Z,96733.47
2019-03-06T20:54:12.114Z,96726.38
2019-03-06T20:56:41.480Z,96725.58
2019-03-06T20:59:10.742Z,96725.99
2019-03-06T21:01:40.037Z,96724.48
2019-03-06T21:04:09.404Z,96723.28
2019-03-06T21:06:38.864Z,96732.03
2019-03-06T21:09:08.411Z,96720.02
2019-03-06T21:11:37.910Z,96723.73
2019-03-06T21:14:07.590Z,96727.23
2019-03-06T21:16:37.219Z,96730.08
2019-03-06T21:19:07.378Z,96726.38
2019-03-06T21:21:36.649Z,96735.90
2019-03-06T21:24:06.012Z,96728.59
2019-03-06T21:26:35.479Z,96720.05
2019-03-06T21:29:04.997Z,96705.07
2019-03-06T21:31:35.242Z,96709.16
2019-03-06T21:34:04.592Z,96700.20
2019-03-06T21:36:34.281Z,96703.34
2019-03-06T21:39:04.572Z,96690.58
2019-03-06T21:41:33.860Z,96686.41
2019-03-06T21:44:03.310Z,96682.50
2019-03-06T21:46:34.418Z,96671.02
2019-03-06T21:49:04.844Z,96677.75
2019-03-06T21:51:34.138Z,96683.16
2019-03-06T21:54:03.560Z,96679.48
2019-03-06T21:56:32.834Z,96672.26
2019-03-06T21:59:02.737Z,96656.70
2019-03-06T22:01:32.029Z,96653.51
2019-03-06T22:04:01.797Z,96643.56
2019-03-06T22:06:31.706Z,96646.36
2019-03-06T22:09:07.664Z,96642.55
2019-03-06T22:11:37.593Z,96635.53
2019-03-06T22:14:10.072Z,96643.12
2019-03-06T22:16:39.862Z,96635.33
2019-03-06T22:19:09.114Z,96645.75
2019-03-06T22:21:40.671Z,96658.69
2019-03-06T22:24:10.258Z,96667.27
2019-03-06T22:26:40.192Z,96665.06
2019-03-06T22:29:09.898Z,96669.99
2019-03-06T22:31:39.734Z,96688.44
2019-03-06T22:34:09.726Z,96683.81
2019-03-06T22:36:56.444Z,96667.42
2019-03-06T22:39:21.975Z,96661.94
2019-03-06T22:41:51.558Z,96663.83
2019-03-06T22:44:21.141Z,96659.70
2019-03-06T22:46:50.863Z,96647.99
2019-03-06T22:49:20.375Z,96649.69
2019-03-06T22:51:49.990Z,96650.06
2019-03-06T22:54:19.554Z,96650.68
2019-03-06T22:56:49.130Z,96722.12
2019-03-06T22:59:18.618Z,96660.28
2019-03-06T23:01:48.590Z,96657.89
2019-03-06T23:04:18.401Z,96694.84
2019-03-06T23:06:48.871Z,96684.94
2019-03-06T23:09:18.826Z,96676.30
2019-03-06T23:11:48.488Z,96681.63
2019-03-06T23:14:18.247Z,96666.06
2019-03-06T23:16:47.925Z,96652.45
2019-03-06T23:19:17.428Z,96657.12
2019-03-06T23:21:48.200Z,96658.64
2019-03-06T23:24:20.429Z,96651.67
2019-03-06T23:26:50.329Z,96645.64
2019-03-06T23:29:19.845Z,96625.17
2019-03-06T23:31:50.519Z,96615.47
2019-03-06T23:34:20.052Z,96606.17
2019-03-06T23:36:49.741Z,96576.31
2019-03-06T23:39:19.557Z,96585.44
2019-03-06T23:41:49.071Z,96603.55
2019-03-06T23:44:18.643Z,96593.20
2019-03-06T23:46:48.257Z,96609.81
2019-03-06T23:49:17.963Z,96611.89
2019-03-06T23:51:54.890Z,96610.67
2019-03-06T23:54:24.694Z,96619.39
2019-03-06T23:56:53.971Z,96634.13
2019-03-06T23:59:24.981Z,96632.14
